createdAt,value
2024-04-23T05:02:05.876Z,50.00
2024-04-23T05:02:43.423Z,50.00
2024-04-23T05:03:43.337Z,50.00
2024-04-23T05:04:43.348Z,50.00
2024-04-23T05:05:43.317Z,50.00
2024-04-23T05:06:43.304Z,50.00
2024-04-23T05:07:43.356Z,34.63
2024-04-23T05:08:43.327Z,10.82
2024-04-23T05:09:43.326Z,0.00
2024-04-23T05:10:43.369Z,0.00
2024-04-23T05:11:43.361Z,0.00
2024-04-23T05:12:43.387Z,0.00
2024-04-23T05:13:43.373Z,0.00
2024-04-23T05:14:43.436Z,0.00
2024-04-23T05:15:43.784Z,0.00
2024-04-23T05:16:43.388Z,0.00
2024-04-23T05:17:43.448Z,0.00
2024-04-23T05:18:43.376Z,1.99
2024-04-23T05:19:43.426Z,10.06
2024-04-23T05:20:43.388Z,23.01
2024-04-23T05:21:43.407Z,30.95
2024-04-23T05:22:43.421Z,43.66
2024-04-23T05:23:43.386Z,50.00
2024-04-23T05:24:43.394Z,49.76
2024-04-23T05:25:43.430Z,50.24
2024-04-23T05:26:43.413Z,50.00
2024-04-23T05:27:43.419Z,50.91
2024-04-23T05:28:43.492Z,50.61
2024-04-23T05:29:43.585Z,52.57
2024-04-23T05:30:43.816Z,50.44
2024-04-23T05:31:44.014Z,51.22
2024-04-23T05:32:44.256Z,50.32
2024-04-23T05:33:44.441Z,51.67
2024-04-23T05:34:44.451Z,50.73
2024-04-23T05:35:44.777Z,51.65
2024-04-23T05:36:44.594Z,50.00
2024-04-23T05:37:44.790Z,49.64
2024-04-23T05:38:44.725Z,50.72
2024-04-23T05:39:44.807Z,50.00
2024-04-23T05:40:45.047Z,52.12
2024-04-23T05:41:45.200Z,50.00
2024-04-23T05:42:45.252Z,50.97
2024-04-23T05:43:45.351Z,50.78
2024-04-23T05:44:45.383Z,50.85
2024-04-23T05:45:45.456Z,50.96
2024-04-23T05:46:45.644Z,51.32
2024-04-23T05:47:45.820Z,50.00
2024-04-23T05:48:45.750Z,50.50
2024-04-23T05:49:45.848Z,50.00
2024-04-23T05:50:45.854Z,51.01
2024-04-23T05:51:45.931Z,51.23
2024-04-23T05:52:46.402Z,50.00
2024-04-23T05:53:46.048Z,50.01
2024-04-23T05:54:46.118Z,49.44
2024-04-23T05:55:49.067Z,50.00
2024-04-23T05:56:47.165Z,50.04
2024-04-23T05:57:46.168Z,49.21
2024-04-23T05:58:46.231Z,44.52
2024-04-23T05:59:46.159Z,44.10
2024-04-23T06:00:46.202Z,41.67
2024-04-23T06:01:46.237Z,50.96
2024-04-23T06:02:46.244Z,52.90
2024-04-23T06:03:46.231Z,51.06
2024-04-23T06:04:46.308Z,52.06
2024-04-23T06:05:46.233Z,53.17
2024-04-23T06:06:46.243Z,51.45
2024-04-23T06:07:46.284Z,54.29
2024-04-23T06:08:46.349Z,50.56
2024-04-23T06:09:46.516Z,51.47
2024-04-23T06:10:46.657Z,53.87
2024-04-23T06:11:46.743Z,53.54
2024-04-23T06:13:46.891Z,53.55
2024-04-23T06:14:46.936Z,51.91
2024-04-23T06:15:47.040Z,51.63
2024-04-23T06:16:47.227Z,52.66
2024-04-23T06:17:48.407Z,53.25
2024-04-23T06:18:47.445Z,51.51
2024-04-23T06:19:47.434Z,51.48
2024-04-23T06:20:47.799Z,50.90
2024-04-23T06:21:47.582Z,52.09
2024-04-23T06:22:47.793Z,54.38
2024-04-23T06:23:48.313Z,53.38
2024-04-23T06:24:47.838Z,55.73
2024-04-23T06:25:47.966Z,53.68
2024-04-23T06:26:47.965Z,52.25
2024-04-23T06:27:48.001Z,51.35
2024-04-23T06:28:48.047Z,55.39
2024-04-23T06:29:48.063Z,53.10
2024-04-23T06:30:48.110Z,53.93
2024-04-23T06:31:48.231Z,53.11
2024-04-23T06:32:48.450Z,55.43
2024-04-23T06:33:48.456Z,55.44
2024-04-23T06:34:48.588Z,54.43
2024-04-23T06:35:48.725Z,54.50
2024-04-23T06:36:48.848Z,54.44
2024-04-23T06:37:49.347Z,53.85
2024-04-23T06:38:49.104Z,55.07
2024-04-23T06:39:49.232Z,56.76
2024-04-23T06:40:54.935Z,56.33
2024-04-23T06:41:56.175Z,56.39
2024-04-23T06:42:56.595Z,56.37
2024-04-23T06:43:50.387Z,56.40
2024-04-23T06:44:49.400Z,56.42
2024-04-23T06:45:49.381Z,56.51
2024-04-23T06:46:49.390Z,53.05
2024-04-23T06:47:49.429Z,54.97
2024-04-23T06:48:49.377Z,53.89
2024-04-23T06:49:49.603Z,54.14
2024-04-23T06:50:49.822Z,54.20
2024-04-23T06:51:49.392Z,53.47
2024-04-23T06:52:49.412Z,53.55
2024-04-23T06:53:49.428Z,58.09
2024-04-23T06:54:49.391Z,53.17
2024-04-23T06:55:49.469Z,53.24
2024-04-23T06:56:49.406Z,54.49
2024-04-23T06:57:49.807Z,52.14
2024-04-23T06:58:49.460Z,53.32
2024-04-23T06:59:49.417Z,54.52
2024-04-23T07:00:49.841Z,53.00
2024-04-23T07:01:49.458Z,55.40
2024-04-23T07:02:49.442Z,53.28
2024-04-23T07:03:49.428Z,51.95
2024-04-23T07:04:49.448Z,53.88
2024-04-23T07:05:49.810Z,54.86
2024-04-23T07:06:49.437Z,54.10
2024-04-23T07:07:49.458Z,53.54
2024-04-23T07:08:50.496Z,53.80
2024-04-23T07:09:49.450Z,55.18
2024-04-23T07:10:49.513Z,51.35
2024-04-23T07:11:49.534Z,51.00
2024-04-23T07:12:49.478Z,50.96
2024-04-23T07:13:49.578Z,52.29
2024-04-23T07:14:49.661Z,53.42
2024-04-23T07:15:49.767Z,51.43
2024-04-23T07:16:49.966Z,54.68
2024-04-23T07:17:50.073Z,55.23
2024-04-23T07:18:56.643Z,51.89
2024-04-23T07:19:52.349Z,52.07
2024-04-23T07:20:50.075Z,52.43
2024-04-23T07:21:50.142Z,52.62
2024-04-23T07:22:50.233Z,52.79
2024-04-23T07:23:50.211Z,49.72
2024-04-23T07:24:50.254Z,55.69
2024-04-23T07:25:50.290Z,53.38
2024-04-23T07:26:51.892Z,54.61
2024-04-23T07:27:50.354Z,53.91
2024-04-23T07:28:50.851Z,54.10
2024-04-23T07:29:50.409Z,55.12
2024-04-23T07:30:50.441Z,53.27
2024-04-23T07:31:50.503Z,53.44
2024-04-23T07:32:50.608Z,53.58
2024-04-23T07:33:50.583Z,54.95
2024-04-23T07:34:50.689Z,57.29
2024-04-23T07:35:50.676Z,61.13
2024-04-23T07:36:50.650Z,58.61
2024-04-23T07:37:50.742Z,59.25
2024-04-23T07:38:50.723Z,56.63
2024-04-23T07:39:50.829Z,56.82
2024-04-23T07:40:50.930Z,56.23
2024-04-23T07:41:51.364Z,56.35
2024-04-23T07:42:51.827Z,51.16
2024-04-23T07:43:51.405Z,53.67
2024-04-23T07:44:51.397Z,50.15
2024-04-23T07:45:51.524Z,50.00
2024-04-23T07:46:51.698Z,50.99
2024-04-23T07:47:51.845Z,50.00
2024-04-23T07:48:51.890Z,50.81
2024-04-23T07:49:52.055Z,53.28
2024-04-23T07:50:52.108Z,50.92
2024-04-23T07:51:52.200Z,51.33
2024-04-23T07:52:52.307Z,50.71
2024-04-23T07:53:52.341Z,50.00
2024-04-23T07:54:52.509Z,52.14
2024-04-23T07:55:52.686Z,52.30
2024-04-23T07:56:52.727Z,55.80
2024-04-23T07:57:53.003Z,56.57
2024-04-23T07:58:53.041Z,61.73
2024-04-23T07:59:53.131Z,60.68
2024-04-23T08:00:53.328Z,63.31
2024-04-23T08:01:53.413Z,66.69
2024-04-23T08:02:53.535Z,67.67
2024-04-23T08:03:53.674Z,70.60
2024-04-23T08:04:53.828Z,73.24
2024-04-23T08:05:53.914Z,76.90
2024-04-23T08:06:54.037Z,68.77
2024-04-23T08:07:54.199Z,57.69
2024-04-23T08:08:54.302Z,53.85
2024-04-23T08:09:54.419Z,52.47
2024-04-23T08:10:54.564Z,50.25
2024-04-23T08:11:54.668Z,51.46
2024-04-23T08:12:54.780Z,52.62
2024-04-23T08:13:54.926Z,50.00
2024-04-23T08:14:54.970Z,52.17
2024-04-23T08:15:55.377Z,53.07
2024-04-23T08:16:55.253Z,54.74
2024-04-23T08:17:55.420Z,51.13
2024-04-23T08:18:55.434Z,55.95
2024-04-23T08:19:55.527Z,64.36
2024-04-23T08:20:55.546Z,67.52
2024-04-23T08:21:55.582Z,73.55
2024-04-23T08:23:21.845Z,78.19
2024-04-23T08:23:55.653Z,78.32
2024-04-23T08:24:55.661Z,79.32
2024-04-23T08:25:55.788Z,80.63
2024-04-23T08:26:55.869Z,82.19
2024-04-23T08:27:55.865Z,86.42
2024-04-23T08:28:55.685Z,87.84
2024-04-23T08:29:55.703Z,81.46
2024-04-23T08:30:55.750Z,78.17
2024-04-23T08:31:55.786Z,72.60
2024-04-23T08:32:55.819Z,69.85
2024-04-23T08:33:55.870Z,67.41
2024-04-23T08:34:55.894Z,56.74
2024-04-23T08:35:55.927Z,54.79
2024-04-23T08:36:55.995Z,51.18
2024-04-23T08:37:56.027Z,48.55
2024-04-23T08:38:56.045Z,52.34
2024-04-23T08:39:56.158Z,56.50
2024-04-23T08:40:56.310Z,61.32
2024-04-23T08:41:56.337Z,63.40
2024-04-23T08:42:56.422Z,62.16
2024-04-23T08:43:56.486Z,68.51
2024-04-23T08:44:56.577Z,73.66
2024-04-23T08:45:56.638Z,83.82
2024-04-23T08:46:56.782Z,88.02
2024-04-23T08:47:56.835Z,89.16
2024-04-23T08:48:56.850Z,88.10
2024-04-23T08:49:56.894Z,91.94
2024-04-23T08:50:57.016Z,96.06
2024-04-23T08:51:57.342Z,99.29
2024-04-23T08:52:57.136Z,106.56
2024-04-23T08:53:57.163Z,108.95
2024-04-23T08:54:57.232Z,105.84
2024-04-23T08:55:57.362Z,109.22
2024-04-23T08:56:57.878Z,113.49
2024-04-23T08:57:57.593Z,113.60
2024-04-23T08:58:57.757Z,118.09
2024-04-23T08:59:57.683Z,118.02
2024-04-23T09:00:57.787Z,119.22
2024-04-23T09:01:57.872Z,120.61
2024-04-23T09:02:57.962Z,122.38
2024-04-23T09:03:58.021Z,125.22
2024-04-23T09:04:58.113Z,128.29
2024-04-23T09:05:58.134Z,126.97
2024-04-23T09:06:58.315Z,131.05
2024-04-23T09:07:58.402Z,131.25
2024-04-23T09:08:58.488Z,134.41
2024-04-23T09:09:58.557Z,136.61
2024-04-23T09:11:06.434Z,50.00
2024-04-23T09:12:06.181Z,50.00
2024-04-23T09:13:06.115Z,50.00
2024-04-23T09:14:06.220Z,50.00
2024-04-23T09:15:27.137Z,50.00
2024-04-23T09:16:06.185Z,50.00
2024-04-23T09:17:06.236Z,50.00
2024-04-23T09:18:06.465Z,50.00
2024-04-23T09:19:06.157Z,50.00
2024-04-23T09:20:06.431Z,50.00
2024-04-23T09:21:06.158Z,50.88
2024-04-23T09:22:09.510Z,53.49
2024-04-23T09:23:06.187Z,53.53
2024-04-23T09:24:06.155Z,53.79
2024-04-23T09:25:06.306Z,54.96
2024-04-23T09:26:06.552Z,55.20
2024-04-23T09:27:06.174Z,58.27
2024-04-23T09:28:06.197Z,57.61
2024-04-23T09:29:06.203Z,61.56
2024-04-23T09:30:06.190Z,63.03
2024-04-23T09:31:06.150Z,62.17
2024-04-23T09:32:06.372Z,65.77
2024-04-23T09:33:07.316Z,65.82
2024-04-23T09:34:06.162Z,65.41
2024-04-23T09:35:06.217Z,67.01
2024-04-23T09:36:06.223Z,66.97
2024-04-23T09:37:06.226Z,69.65
2024-04-23T09:38:06.350Z,70.77
2024-04-23T09:39:06.431Z,70.90
2024-04-23T09:40:06.243Z,73.50
2024-04-23T09:41:06.523Z,75.98
2024-04-23T09:42:06.509Z,76.91
2024-04-23T09:43:06.616Z,77.56
2024-04-23T09:44:06.869Z,78.33
2024-04-23T09:45:06.855Z,81.73
2024-04-23T09:46:10.227Z,84.52
2024-04-23T09:47:07.553Z,84.27
2024-04-23T09:48:07.085Z,84.90
2024-04-23T09:49:06.958Z,86.37
2024-04-23T09:50:07.539Z,88.20
2024-04-23T09:51:07.000Z,92.95
2024-04-23T09:52:06.965Z,96.73
2024-04-23T09:53:07.084Z,95.67
2024-04-23T09:54:06.992Z,95.46
2024-04-23T09:55:07.447Z,98.28
2024-04-23T09:56:07.060Z,100.09
2024-04-23T09:57:06.980Z,99.83
2024-04-23T09:58:06.991Z,103.13
2024-04-23T09:59:07.455Z,102.33
2024-04-23T10:00:07.016Z,101.99
2024-04-23T10:01:07.076Z,104.37
2024-04-23T10:02:07.067Z,107.11
2024-04-23T10:03:07.037Z,108.44
2024-04-23T10:04:07.085Z,107.51
2024-04-23T10:05:07.502Z,108.07
2024-04-23T10:06:07.021Z,109.26
2024-04-23T10:07:07.015Z,109.65
2024-04-23T10:08:07.126Z,110.70
2024-04-23T10:09:07.425Z,110.12
2024-04-23T10:10:07.332Z,114.02
2024-04-23T10:11:07.610Z,113.74
2024-04-23T10:12:07.648Z,115.25
2024-04-23T10:13:07.688Z,118.19
2024-04-23T10:14:07.890Z,117.42
2024-04-23T10:15:07.941Z,118.17
2024-04-23T10:16:08.057Z,118.59
2024-04-23T10:17:08.270Z,118.63
2024-04-23T10:18:08.500Z,117.54
2024-04-23T10:19:08.441Z,116.69
2024-04-23T10:20:08.666Z,118.18
2024-04-23T10:21:08.673Z,117.86
2024-04-23T10:22:08.792Z,118.23
2024-04-23T10:23:09.024Z,118.84
2024-04-23T10:24:09.255Z,118.36
2024-04-23T10:25:09.545Z,121.60
2024-04-23T10:26:09.487Z,120.35
2024-04-23T10:27:09.400Z,118.59
2024-04-23T10:28:09.562Z,121.36
2024-04-23T10:29:09.992Z,123.82
2024-04-23T10:30:09.726Z,118.02
2024-04-23T10:31:09.823Z,118.86
2024-04-23T10:32:10.019Z,111.86
2024-04-23T10:33:10.129Z,115.43
2024-04-23T10:34:10.226Z,112.60
2024-04-23T10:35:10.444Z,112.69
2024-04-23T10:36:10.399Z,112.83
2024-04-23T10:37:10.498Z,114.43
2024-04-23T10:38:10.649Z,113.87
2024-04-23T10:39:10.944Z,108.43
2024-04-23T10:40:10.904Z,106.00
2024-04-23T10:41:11.050Z,102.75
2024-04-23T10:42:11.050Z,82.43
2024-04-23T10:43:11.204Z,62.95
2024-04-23T10:44:11.365Z,47.37
2024-04-23T10:45:11.336Z,47.93
2024-04-23T10:46:11.462Z,50.87
2024-04-23T10:47:11.670Z,50.00
2024-04-23T10:48:11.669Z,53.79
2024-04-23T10:49:11.641Z,56.56
2024-04-23T10:50:11.736Z,58.17
2024-04-23T10:51:11.759Z,64.00
2024-04-23T10:52:11.828Z,68.73
2024-04-23T10:53:12.119Z,69.75
2024-04-23T10:54:12.472Z,71.22
2024-04-23T10:55:12.131Z,75.38
2024-04-23T10:56:12.354Z,76.83
2024-04-23T10:57:12.396Z,73.83
2024-04-23T10:58:12.537Z,81.44
2024-04-23T10:59:12.749Z,82.32
2024-04-23T11:00:12.803Z,85.09
2024-04-23T11:01:13.064Z,89.32
2024-04-23T11:02:13.143Z,93.37
2024-04-23T11:03:13.277Z,97.65
2024-04-23T11:04:13.458Z,98.73
2024-04-23T11:05:13.471Z,100.36
2024-04-23T11:06:14.591Z,103.98
2024-04-23T11:07:13.657Z,104.23
2024-04-23T11:08:13.764Z,106.43
2024-04-23T11:09:13.871Z,106.71
2024-04-23T11:10:13.995Z,108.20
2024-04-23T11:11:14.152Z,110.60
2024-04-23T11:12:14.226Z,111.12
2024-04-23T11:13:14.340Z,113.77
2024-04-23T11:14:15.000Z,111.40
2024-04-23T11:15:14.549Z,113.40
2024-04-23T11:16:14.675Z,115.90
2024-04-23T11:17:14.863Z,117.60
2024-04-23T11:18:15.331Z,116.42
2024-04-23T11:19:15.019Z,118.42
2024-04-23T11:20:15.171Z,120.09
2024-04-23T11:21:15.271Z,120.75
2024-04-23T11:22:15.414Z,122.26
2024-04-23T11:23:15.587Z,121.06
2024-04-23T11:24:15.589Z,122.05
2024-04-23T11:25:15.959Z,124.31
2024-04-23T11:26:15.838Z,125.38
2024-04-23T11:27:15.940Z,125.76
2024-04-23T11:28:16.039Z,122.73
2024-04-23T11:29:16.203Z,121.98
2024-04-23T11:30:16.292Z,125.11
2024-04-23T11:31:16.373Z,125.96
2024-04-23T11:32:16.647Z,126.10
2024-04-23T11:33:16.598Z,126.76
2024-04-23T11:34:16.727Z,127.11
2024-04-23T11:35:16.874Z,127.21
2024-04-23T11:36:16.930Z,129.16
2024-04-23T11:37:17.024Z,128.71
2024-04-23T11:38:17.184Z,127.13
2024-04-23T11:39:17.280Z,131.44
2024-04-23T11:40:17.367Z,134.41
2024-04-23T11:41:18.061Z,136.14
2024-04-23T11:42:17.605Z,138.92
2024-04-23T11:43:17.746Z,141.61
2024-04-23T11:44:17.872Z,141.48
2024-04-23T11:45:17.962Z,141.11
2024-04-23T11:46:18.073Z,139.12
2024-04-23T11:47:18.327Z,144.26
2024-04-23T11:48:18.461Z,140.55
2024-04-23T11:49:18.402Z,142.71
2024-04-23T11:50:18.524Z,138.88
2024-04-23T11:51:18.652Z,138.19
2024-04-23T11:52:18.773Z,137.89
2024-04-23T11:53:18.893Z,137.52
2024-04-23T11:54:18.980Z,135.00
2024-04-23T11:55:19.090Z,133.18
2024-04-23T11:56:19.209Z,133.40
2024-04-23T11:57:19.375Z,133.15
2024-04-23T11:58:19.441Z,133.12
2024-04-23T11:59:19.617Z,134.12
2024-04-23T12:00:19.675Z,132.39
2024-04-23T12:01:19.798Z,134.52
2024-04-23T12:02:19.926Z,133.90
2024-04-23T12:03:20.033Z,135.05
2024-04-23T12:04:20.238Z,137.36
2024-04-23T12:05:20.332Z,134.70
2024-04-23T12:06:20.542Z,133.91
2024-04-23T12:07:20.547Z,134.57
2024-04-23T12:08:20.660Z,129.03
2024-04-23T12:09:20.782Z,129.05
2024-04-23T12:10:20.867Z,125.23
2024-04-23T12:11:21.255Z,124.41
2024-04-23T12:12:21.127Z,123.60
2024-04-23T12:13:21.270Z,122.35
2024-04-23T12:14:21.373Z,115.86
2024-04-23T12:15:21.471Z,113.41
2024-04-23T12:16:21.597Z,108.71
2024-04-23T12:17:21.767Z,109.02
2024-04-23T12:18:21.993Z,103.15
2024-04-23T12:19:25.052Z,103.26
2024-04-23T12:20:21.940Z,99.36
2024-04-23T12:21:21.953Z,97.76
2024-04-23T12:22:21.971Z,96.04
2024-04-23T12:23:21.999Z,91.09
2024-04-23T12:24:23.856Z,87.81
2024-04-23T12:25:22.200Z,85.04
2024-04-23T12:26:22.170Z,82.00
2024-04-23T12:27:22.196Z,78.18
2024-04-23T12:28:22.249Z,76.32
2024-04-23T12:29:22.275Z,72.69
2024-04-23T12:30:22.957Z,69.92
2024-04-23T12:31:22.296Z,68.13
2024-04-23T12:32:22.389Z,65.62
2024-04-23T12:33:22.429Z,66.14
2024-04-23T12:34:22.374Z,64.97
2024-04-23T12:35:22.511Z,61.77
2024-04-23T12:36:22.471Z,58.65
2024-04-23T12:37:22.592Z,56.74
2024-04-23T12:38:22.728Z,55.09
2024-04-23T12:39:22.824Z,53.95
2024-04-23T12:40:22.928Z,53.48
2024-04-23T12:41:23.114Z,53.16
2024-04-23T12:42:23.172Z,50.45
2024-04-23T12:43:23.310Z,50.14
2024-04-23T12:44:23.391Z,50.17
2024-04-23T12:45:23.497Z,50.00
2024-04-23T12:46:23.616Z,54.65
2024-04-23T12:47:23.838Z,50.44
2024-04-23T12:48:23.850Z,50.00
2024-04-23T12:49:24.043Z,51.34
2024-04-23T12:50:23.818Z,51.41
2024-04-23T12:51:23.854Z,50.08
2024-04-23T12:52:23.899Z,53.31
2024-04-23T12:53:23.934Z,53.67
2024-04-23T12:54:24.016Z,52.58
2024-04-23T12:55:23.981Z,53.62
2024-04-23T12:56:24.035Z,52.05
2024-04-23T12:57:24.180Z,56.86
2024-04-23T12:58:24.266Z,59.55
2024-04-23T12:59:24.444Z,54.90
2024-04-23T13:00:24.525Z,55.40
2024-04-23T13:01:34.943Z,57.09
2024-04-23T13:02:25.727Z,57.18
2024-04-23T13:03:24.844Z,57.19
2024-04-23T13:04:24.658Z,57.27
2024-04-23T13:05:24.676Z,57.39
2024-04-23T13:06:24.635Z,57.61
2024-04-23T13:07:24.632Z,58.86
2024-04-23T13:08:24.630Z,56.92
2024-04-23T13:09:24.680Z,57.00
2024-04-23T13:10:24.807Z,57.65
2024-04-23T13:11:24.953Z,58.86
2024-04-23T13:12:25.016Z,54.82
2024-04-23T13:13:25.140Z,56.67
2024-04-23T13:14:25.240Z,56.53
2024-04-23T13:15:25.389Z,55.10
2024-04-23T13:16:38.249Z,56.78
2024-04-23T13:17:26.534Z,56.78
2024-04-23T13:18:25.568Z,57.23
2024-04-23T13:19:25.519Z,57.54
2024-04-23T13:20:25.520Z,55.99
2024-04-23T13:21:25.572Z,53.65
2024-04-23T13:22:25.523Z,53.17
2024-04-23T13:23:25.512Z,51.18
2024-04-23T13:24:25.519Z,52.63
2024-04-23T13:25:25.538Z,51.55
2024-04-23T13:26:25.519Z,51.81
2024-04-23T13:27:25.492Z,53.35
2024-04-23T13:28:25.514Z,52.18
2024-04-23T13:29:25.528Z,49.87
2024-04-23T13:30:25.533Z,50.00
2024-04-23T13:31:25.672Z,51.98
2024-04-23T13:32:25.911Z,51.65
2024-04-23T13:33:25.992Z,52.54
2024-04-23T13:34:26.009Z,56.03
2024-04-23T13:35:26.116Z,53.70
2024-04-23T13:36:26.264Z,52.36
2024-04-23T13:37:26.440Z,51.50
2024-04-23T13:38:26.486Z,55.25
2024-04-23T13:39:26.631Z,51.52
2024-04-23T13:40:26.709Z,54.06
2024-04-23T13:41:26.849Z,52.92
2024-04-23T13:42:26.973Z,50.50
2024-04-23T13:43:27.090Z,51.75
2024-04-23T13:44:27.210Z,53.17
2024-04-23T13:45:27.361Z,52.25
2024-04-23T13:46:27.452Z,54.21
2024-04-23T13:47:27.613Z,54.18
2024-04-23T13:48:28.217Z,54.66
2024-04-23T13:49:27.845Z,55.01
2024-04-23T13:50:27.948Z,54.85
2024-04-23T13:51:28.063Z,55.13
2024-04-23T13:52:28.197Z,52.84
2024-04-23T13:53:28.321Z,50.60
2024-04-23T13:54:28.503Z,52.42
2024-04-23T13:55:28.571Z,53.96
2024-04-23T13:56:28.702Z,56.93
2024-04-23T13:57:28.809Z,54.65
2024-04-23T13:58:28.928Z,57.54
2024-04-23T13:59:29.188Z,58.02
2024-04-23T14:00:29.202Z,61.98
2024-04-23T14:01:29.317Z,63.92
2024-04-23T14:02:29.518Z,61.37
2024-04-23T14:03:29.556Z,61.59
2024-04-23T14:04:29.721Z,62.09
2024-04-23T14:05:29.794Z,59.08
2024-04-23T14:06:29.916Z,59.88
2024-04-23T14:07:30.057Z,55.87
2024-04-23T14:08:30.185Z,51.68
2024-04-23T14:09:30.304Z,61.04
2024-04-23T14:10:30.431Z,65.35
2024-04-23T14:11:30.596Z,71.57
2024-04-23T14:12:30.689Z,80.31
2024-04-23T14:13:30.825Z,86.73
2024-04-23T14:14:30.937Z,87.93
2024-04-23T14:15:31.064Z,97.33
2024-04-23T14:16:31.221Z,99.65
2024-04-23T14:17:31.327Z,106.17
2024-04-23T14:18:31.470Z,106.75
2024-04-23T14:19:31.610Z,107.28
2024-04-23T14:20:31.708Z,111.61
2024-04-23T14:21:31.817Z,114.10
2024-04-23T14:22:31.954Z,113.58
2024-04-23T14:23:32.101Z,114.94
2024-04-23T14:24:32.211Z,117.17
2024-04-23T14:25:32.323Z,117.90
2024-04-23T14:26:32.454Z,121.17
2024-04-23T14:27:32.568Z,121.77
2024-04-23T14:28:32.719Z,122.52
2024-04-23T14:29:32.818Z,126.08
2024-04-23T14:30:32.923Z,126.43
2024-04-23T14:31:35.161Z,130.69
2024-04-23T14:32:33.142Z,129.74
2024-04-23T14:33:33.256Z,130.55
2024-04-23T14:34:33.154Z,132.62
2024-04-23T14:35:33.287Z,132.92
2024-04-23T14:36:33.427Z,133.83
2024-04-23T14:37:33.542Z,137.52
2024-04-23T14:38:33.805Z,139.25
2024-04-23T14:39:33.792Z,137.48
2024-04-23T14:40:33.902Z,140.59
2024-04-23T14:41:34.034Z,143.32
2024-04-23T14:42:34.192Z,145.47
2024-04-23T14:43:34.253Z,145.25
2024-04-23T14:44:34.391Z,144.52
2024-04-23T14:45:34.515Z,145.82
2024-04-23T14:46:34.631Z,149.20
2024-04-23T14:47:35.026Z,149.36
2024-04-23T14:48:34.915Z,150.35
2024-04-23T14:49:34.992Z,151.32
2024-04-23T14:50:35.141Z,150.36
2024-04-23T14:51:35.329Z,148.86
2024-04-23T14:52:35.375Z,152.64
2024-04-23T14:53:35.481Z,152.16
2024-04-23T14:54:35.649Z,152.20
2024-04-23T14:55:35.781Z,153.89
2024-04-23T14:56:35.879Z,155.19
2024-04-23T14:57:35.990Z,155.45
2024-04-23T14:58:36.212Z,156.10
2024-04-23T14:59:36.239Z,155.60
2024-04-23T15:00:36.338Z,157.65
2024-04-23T15:01:36.468Z,158.72
2024-04-23T15:02:36.645Z,162.14
2024-04-23T15:03:36.780Z,157.88
2024-04-23T15:04:36.867Z,158.67
2024-04-23T15:05:36.960Z,158.93
2024-04-23T15:06:37.095Z,157.71
2024-04-23T15:07:37.232Z,159.47
2024-04-23T15:08:37.313Z,161.54
2024-04-23T15:09:37.439Z,162.87
2024-04-23T15:10:37.661Z,160.51
2024-04-23T15:11:37.848Z,164.24
2024-04-23T15:12:37.827Z,164.32
2024-04-23T15:13:37.988Z,164.99
2024-04-23T15:14:38.083Z,164.00
2024-04-23T15:15:38.239Z,164.03
2024-04-23T15:16:38.389Z,163.73
2024-04-23T15:17:38.612Z,165.17
2024-04-23T15:18:38.902Z,165.96
2024-04-23T15:19:38.746Z,164.85
2024-04-23T15:20:38.848Z,166.61
2024-04-23T15:21:38.963Z,167.47
2024-04-23T15:22:39.106Z,166.86
2024-04-23T15:23:39.227Z,167.17
2024-04-23T15:24:39.338Z,166.85
2024-04-23T15:25:39.544Z,166.42
2024-04-23T15:26:39.620Z,165.98
2024-04-23T15:27:39.732Z,167.24
2024-04-23T15:28:39.888Z,168.38
2024-04-23T15:29:39.983Z,168.11
2024-04-23T15:30:40.128Z,167.33
2024-04-23T15:31:40.273Z,168.29
2024-04-23T15:32:40.537Z,168.60
2024-04-23T15:33:40.562Z,168.63
2024-04-23T15:34:40.574Z,167.66
2024-04-23T15:35:40.714Z,166.45
2024-04-23T15:36:40.836Z,169.60
2024-04-23T15:37:41.001Z,167.07
2024-04-23T15:38:41.105Z,168.77
2024-04-23T15:39:41.290Z,165.42
2024-04-23T15:40:41.371Z,169.54
2024-04-23T15:41:41.497Z,166.93
2024-04-23T15:42:41.638Z,167.58
2024-04-23T15:43:41.768Z,170.04
2024-04-23T15:44:41.882Z,169.60
2024-04-23T15:45:41.972Z,170.70
2024-04-23T15:46:42.147Z,170.14
2024-04-23T15:47:42.311Z,170.89
2024-04-23T15:48:42.555Z,167.70
2024-04-23T15:49:42.510Z,167.26
2024-04-23T15:50:42.634Z,169.47
2024-04-23T15:51:42.839Z,168.56
2024-04-23T15:52:42.975Z,168.49
2024-04-23T15:53:43.055Z,170.41
2024-04-23T15:54:43.164Z,169.95
2024-04-23T15:55:43.343Z,169.12
2024-04-23T15:56:43.433Z,168.64
2024-04-23T15:57:43.569Z,169.75
2024-04-23T15:58:43.764Z,169.78
2024-04-23T15:59:43.866Z,167.82
2024-04-23T16:00:44.032Z,169.79
2024-04-23T16:01:44.102Z,169.42
2024-04-23T16:02:44.292Z,169.45
2024-04-23T16:03:44.402Z,170.41
2024-04-23T16:04:44.478Z,170.93
2024-04-23T16:05:44.585Z,170.06
2024-04-23T16:06:44.706Z,169.27
2024-04-23T16:07:44.867Z,169.11
2024-04-23T16:08:45.013Z,169.70
2024-04-23T16:09:45.126Z,168.36
2024-04-23T16:10:45.289Z,167.67
2024-04-23T16:11:45.553Z,170.37
2024-04-23T16:12:45.514Z,169.37
2024-04-23T16:13:45.721Z,169.38
2024-04-23T16:14:45.761Z,168.66
2024-04-23T16:15:45.893Z,169.63
2024-04-23T16:16:46.224Z,169.55
2024-04-23T16:17:46.282Z,168.51
2024-04-23T16:18:46.322Z,166.82
2024-04-23T16:19:46.517Z,167.68
2024-04-23T16:20:46.520Z,167.59
2024-04-23T16:21:46.694Z,166.18
2024-04-23T16:22:46.840Z,166.58
2024-04-23T16:23:47.034Z,165.14
2024-04-23T16:24:47.075Z,167.62
2024-04-23T16:25:47.232Z,166.45
2024-04-23T16:26:47.381Z,166.62
2024-04-23T16:27:47.468Z,166.02
2024-04-23T16:28:47.650Z,166.07
2024-04-23T16:29:47.710Z,166.83
2024-04-23T16:30:47.841Z,165.33
2024-04-23T16:31:48.090Z,167.59
2024-04-23T16:32:48.287Z,166.61
2024-04-23T16:33:51.942Z,165.66
2024-04-23T16:34:49.265Z,165.74
2024-04-23T16:35:48.250Z,165.70
2024-04-23T16:36:48.245Z,166.22
2024-04-23T16:37:48.296Z,166.14
2024-04-23T16:38:48.265Z,164.30
2024-04-23T16:39:48.317Z,165.26
2024-04-23T16:40:48.289Z,164.64
2024-04-23T16:41:48.277Z,165.54
2024-04-23T16:42:48.461Z,164.47
2024-04-23T16:43:48.619Z,166.25
2024-04-23T16:44:48.703Z,163.16
2024-04-23T16:45:48.832Z,164.67
2024-04-23T16:46:49.023Z,163.38
2024-04-23T16:47:49.170Z,163.89
2024-04-23T16:48:49.365Z,162.34
2024-04-23T16:49:49.404Z,162.38
2024-04-23T16:50:49.535Z,161.91
2024-04-23T16:51:51.967Z,163.25
2024-04-23T16:52:49.666Z,161.24
2024-04-23T16:53:49.653Z,163.55
2024-04-23T16:54:49.654Z,161.75
2024-04-23T16:55:49.667Z,159.89
2024-04-23T16:56:49.630Z,162.33
2024-04-23T16:57:49.634Z,164.04
2024-04-23T16:58:49.685Z,162.19
2024-04-23T16:59:49.664Z,163.22
2024-04-23T17:00:49.772Z,161.33
